createdAt,value
2022-12-26T00:02:05.996Z,11.67
2022-12-26T00:04:51.045Z,11.64
2022-12-26T00:07:19.364Z,11.91
2022-12-26T00:09:45.978Z,12.08
2022-12-26T00:12:12.572Z,12.31
2022-12-26T00:14:39.195Z,12.05
2022-12-26T00:17:05.908Z,12.14
2022-12-26T00:19:32.444Z,12.12
2022-12-26T00:21:59.307Z,12.20
2022-12-26T00:24:25.859Z,12.23
2022-12-26T00:26:52.462Z,12.06
2022-12-26T00:29:19.224Z,12.02
2022-12-26T00:31:46.880Z,12.11
2022-12-26T00:34:13.661Z,12.27
2022-12-26T00:36:40.292Z,12.27
2022-12-26T00:39:08.376Z,12.23
2022-12-26T00:41:35.046Z,12.08
2022-12-26T00:44:01.723Z,12.16
2022-12-26T00:46:28.551Z,12.26
2022-12-26T00:48:55.267Z,12.14
2022-12-26T00:51:22.117Z,12.19
2022-12-26T00:53:48.717Z,12.26
2022-12-26T00:56:15.746Z,12.14
2022-12-26T00:58:42.353Z,12.02
2022-12-26T01:01:18.625Z,12.33
2022-12-26T01:03:46.520Z,12.08
2022-12-26T01:06:13.928Z,12.04
2022-12-26T01:08:40.965Z,12.23
2022-12-26T01:11:11.497Z,12.41
2022-12-26T01:13:38.636Z,12.25
2022-12-26T01:16:06.424Z,12.25
2022-12-26T01:18:34.373Z,12.49
2022-12-26T01:21:04.156Z,12.34
2022-12-26T01:23:30.879Z,12.29
2022-12-26T01:26:16.616Z,12.28
2022-12-26T01:28:44.116Z,12.49
2022-12-26T01:31:10.683Z,12.36
2022-12-26T01:33:37.396Z,12.41
2022-12-26T01:36:04.127Z,12.29
2022-12-26T01:38:30.655Z,12.31
2022-12-26T01:41:16.095Z,12.15
2022-12-26T01:44:00.156Z,12.10
2022-12-26T01:46:40.499Z,12.17
2022-12-26T01:49:15.781Z,12.18
2022-12-26T01:51:48.267Z,12.07
2022-12-26T01:54:38.251Z,12.01
2022-12-26T01:57:11.518Z,11.90
2022-12-26T01:59:41.136Z,12.18
2022-12-26T02:02:09.001Z,12.30
2022-12-26T02:05:00.368Z,12.22
2022-12-26T02:07:27.129Z,12.14
2022-12-26T02:09:54.465Z,12.04
2022-12-26T02:12:34.323Z,12.01
2022-12-26T02:15:07.358Z,12.11
2022-12-26T02:17:33.999Z,12.12
2022-12-26T02:20:20.895Z,12.18
2022-12-26T02:23:20.842Z,12.22
2022-12-26T02:25:56.432Z,12.25
2022-12-26T02:28:42.075Z,11.90
2022-12-26T02:31:32.030Z,11.73
2022-12-26T02:34:13.679Z,11.84
2022-12-26T02:36:56.879Z,11.97
2022-12-26T02:39:44.202Z,11.84
2022-12-26T02:42:46.536Z,11.84
2022-12-26T02:45:41.657Z,11.68
2022-12-26T02:48:11.267Z,11.70
2022-12-26T02:51:15.444Z,11.45
2022-12-26T02:54:37.111Z,11.62
2022-12-26T02:57:27.456Z,11.49
2022-12-26T03:00:42.359Z,11.67
2022-12-26T03:03:38.331Z,11.42
2022-12-26T03:06:43.310Z,11.33
2022-12-26T03:09:43.617Z,11.35
2022-12-26T03:12:38.670Z,11.34
2022-12-26T03:15:27.280Z,11.51
2022-12-26T03:18:00.701Z,11.35
2022-12-26T03:20:32.838Z,11.31
2022-12-26T03:23:13.675Z,11.20
2022-12-26T03:26:01.964Z,11.23
2022-12-26T03:28:29.069Z,10.99
2022-12-26T03:30:58.448Z,11.06
2022-12-26T03:33:52.890Z,10.99
2022-12-26T03:36:27.989Z,11.06
2022-12-26T03:39:15.084Z,11.10
2022-12-26T03:42:21.717Z,11.19
2022-12-26T03:45:14.581Z,11.21
2022-12-26T03:48:31.886Z,11.05
2022-12-26T03:51:29.752Z,11.12
2022-12-26T03:54:41.294Z,11.00
2022-12-26T03:57:35.432Z,11.12
2022-12-26T04:00:26.857Z,11.13
2022-12-26T04:03:17.616Z,11.35
2022-12-26T04:06:05.798Z,11.29
2022-12-26T04:09:29.621Z,11.10
2022-12-26T04:12:18.714Z,11.07
2022-12-26T04:15:09.993Z,11.14
2022-12-26T04:18:08.039Z,11.19
2022-12-26T04:20:43.532Z,11.19
2022-12-26T04:23:36.414Z,11.15
2022-12-26T04:26:36.293Z,11.01
2022-12-26T04:29:22.656Z,11.19
2022-12-26T04:32:34.205Z,11.14
2022-12-26T04:36:05.969Z,11.38
2022-12-26T04:38:56.995Z,11.36
2022-12-26T04:41:45.145Z,11.36
2022-12-26T04:44:13.313Z,11.51
2022-12-26T04:46:42.974Z,11.26
2022-12-26T04:49:31.268Z,11.31
2022-12-26T04:51:59.807Z,11.27
2022-12-26T04:54:27.469Z,11.17
2022-12-26T04:56:54.519Z,11.36
2022-12-26T04:59:22.559Z,11.43
2022-12-26T05:02:08.339Z,11.50
2022-12-26T05:04:53.883Z,11.32
2022-12-26T05:07:42.839Z,11.29
2022-12-26T05:10:26.868Z,11.27
2022-12-26T05:12:54.363Z,11.34
2022-12-26T05:15:21.243Z,11.48
2022-12-26T05:18:06.615Z,11.59
2022-12-26T05:20:51.937Z,11.65
2022-12-26T05:23:41.317Z,11.52
2022-12-26T05:26:39.852Z,11.54
2022-12-26T05:29:06.927Z,11.66
2022-12-26T05:31:36.486Z,11.61
2022-12-26T05:34:07.760Z,11.69
2022-12-26T05:36:37.208Z,11.64
2022-12-26T05:39:04.794Z,11.63
2022-12-26T05:41:31.889Z,11.49
2022-12-26T05:43:58.619Z,11.64
2022-12-26T05:46:25.476Z,11.65
2022-12-26T05:48:52.075Z,11.86
2022-12-26T05:51:18.763Z,11.86
2022-12-26T05:53:45.348Z,11.60
2022-12-26T05:56:14.008Z,11.47
2022-12-26T05:58:41.612Z,11.49
2022-12-26T06:01:14.220Z,11.67
2022-12-26T06:03:43.532Z,11.60
2022-12-26T06:06:10.920Z,11.72
2022-12-26T06:08:37.834Z,11.83
2022-12-26T06:11:06.390Z,11.63
2022-12-26T06:13:34.054Z,11.75
2022-12-26T06:16:10.892Z,12.00
2022-12-26T06:18:38.075Z,11.80
2022-12-26T06:21:10.604Z,11.68
2022-12-26T06:23:39.080Z,11.37
2022-12-26T06:26:07.759Z,11.55
2022-12-26T06:28:34.920Z,11.51
2022-12-26T06:31:06.879Z,11.46
2022-12-26T06:33:33.647Z,11.48
2022-12-26T06:36:08.411Z,11.61
2022-12-26T06:38:35.731Z,11.50
2022-12-26T06:41:05.340Z,11.52
2022-12-26T06:43:31.931Z,11.16
2022-12-26T06:45:59.650Z,11.00
2022-12-26T06:48:26.701Z,11.06
2022-12-26T06:50:56.286Z,10.95
2022-12-26T06:53:23.629Z,10.98
2022-12-26T06:55:51.031Z,11.26
2022-12-26T06:58:17.840Z,10.87
2022-12-26T07:00:44.396Z,10.75
2022-12-26T07:03:11.270Z,10.68
2022-12-26T07:05:38.568Z,10.66
2022-12-26T07:08:05.288Z,10.83
2022-12-26T07:10:36.366Z,10.81
2022-12-26T07:13:02.927Z,10.75
2022-12-26T07:15:29.508Z,10.68
2022-12-26T07:17:56.042Z,10.77
2022-12-26T07:20:22.539Z,10.74
2022-12-26T07:22:49.049Z,10.81
2022-12-26T07:25:15.681Z,10.82
2022-12-26T07:27:42.223Z,10.89
2022-12-26T07:30:09.284Z,10.91
2022-12-26T07:32:35.828Z,11.02
2022-12-26T07:35:02.407Z,10.97
2022-12-26T07:37:28.903Z,11.00
2022-12-26T07:39:59.097Z,11.21
2022-12-26T07:42:26.359Z,11.26
2022-12-26T07:44:52.863Z,11.16
2022-12-26T07:47:19.436Z,11.01
2022-12-26T07:49:45.990Z,11.15
2022-12-26T07:52:12.559Z,11.08
2022-12-26T07:54:39.131Z,11.05
2022-12-26T07:57:46.282Z,10.96
2022-12-26T07:59:53.787Z,11.07
2022-12-26T08:02:22.362Z,11.26
2022-12-26T08:04:49.075Z,11.14
2022-12-26T08:07:15.643Z,11.17
2022-12-26T08:09:44.762Z,11.11
2022-12-26T08:12:11.465Z,11.25
2022-12-26T08:14:38.181Z,11.39
2022-12-26T08:17:04.889Z,11.51
2022-12-26T08:19:31.858Z,11.54
2022-12-26T08:21:58.388Z,11.43
2022-12-26T08:24:24.958Z,11.73
2022-12-26T08:26:51.510Z,11.46
2022-12-26T08:29:18.081Z,11.44
2022-12-26T08:31:44.643Z,11.56
2022-12-26T08:34:11.526Z,11.38
2022-12-26T08:36:38.239Z,11.33
2022-12-26T08:39:05.166Z,11.27
2022-12-26T08:41:31.808Z,11.38
2022-12-26T08:46:45.923Z,11.16
2022-12-26T08:49:12.531Z,11.17
2022-12-26T08:51:39.222Z,11.12
2022-12-26T08:54:05.926Z,11.27
2022-12-26T08:56:33.263Z,11.28
2022-12-26T08:58:59.780Z,11.22
2022-12-26T09:01:29.870Z,11.34
2022-12-26T09:03:59.315Z,11.36
2022-12-26T09:06:26.397Z,11.55
2022-12-26T09:08:53.419Z,11.55
2022-12-26T09:11:22.765Z,11.52
2022-12-26T09:13:50.225Z,11.58
2022-12-26T09:16:32.704Z,11.72
2022-12-26T09:19:03.646Z,11.51
2022-12-26T09:21:30.857Z,11.90
2022-12-26T09:23:59.851Z,11.95
2022-12-26T09:26:28.340Z,11.88
2022-12-26T09:28:55.731Z,11.90
2022-12-26T09:31:25.677Z,11.81
2022-12-26T09:33:53.441Z,11.78
2022-12-26T09:36:22.859Z,11.69
2022-12-26T09:38:49.991Z,11.63
2022-12-26T09:41:25.805Z,11.68
2022-12-26T09:44:17.167Z,11.27
2022-12-26T09:46:46.736Z,11.29
2022-12-26T09:49:22.997Z,11.43
2022-12-26T09:51:55.151Z,11.41
2022-12-26T09:54:36.544Z,11.62
2022-12-26T09:57:14.829Z,11.36
2022-12-26T09:59:48.640Z,11.39
2022-12-26T10:02:23.856Z,11.50
2022-12-26T10:04:51.650Z,11.61
2022-12-26T10:07:47.304Z,11.43
2022-12-26T10:10:23.681Z,11.23
2022-12-26T10:13:04.491Z,11.53
2022-12-26T10:15:50.224Z,11.60
2022-12-26T10:18:23.728Z,11.57
2022-12-26T10:21:15.439Z,11.43
2022-12-26T10:23:51.516Z,11.41
2022-12-26T10:26:20.994Z,11.28
2022-12-26T10:29:05.407Z,11.32
2022-12-26T10:31:37.201Z,11.54
2022-12-26T10:34:17.839Z,11.74
2022-12-26T10:36:49.428Z,11.51
2022-12-26T10:39:44.841Z,11.68
2022-12-26T10:42:24.429Z,11.66
2022-12-26T10:44:50.987Z,11.63
2022-12-26T10:47:38.677Z,11.92
2022-12-26T10:50:06.117Z,11.65
2022-12-26T10:52:42.946Z,11.65
2022-12-26T10:55:28.526Z,11.21
2022-12-26T10:58:03.084Z,11.43
2022-12-26T11:00:29.815Z,11.34
2022-12-26T11:03:08.987Z,11.34
2022-12-26T11:08:50.426Z,11.39
2022-12-26T11:11:22.417Z,11.61
2022-12-26T11:14:01.721Z,11.57
2022-12-26T11:16:36.037Z,11.32
2022-12-26T11:19:02.948Z,11.35
2022-12-26T11:21:32.235Z,11.35
2022-12-26T11:24:07.861Z,11.39
2022-12-26T11:26:34.864Z,11.23
2022-12-26T11:29:13.013Z,11.27
2022-12-26T11:31:53.524Z,11.32
2022-12-26T11:34:46.089Z,11.39
2022-12-26T11:37:49.907Z,11.25
2022-12-26T11:40:26.598Z,11.41
2022-12-26T11:42:57.011Z,11.38
2022-12-26T11:45:29.354Z,11.40
2022-12-26T11:48:00.813Z,11.37
2022-12-26T11:50:30.133Z,11.52
2022-12-26T11:52:59.728Z,11.56
2022-12-26T11:55:37.927Z,11.74
2022-12-26T11:58:10.338Z,11.78
2022-12-26T12:01:00.771Z,11.77
2022-12-26T12:03:27.337Z,11.76
2022-12-26T12:06:15.806Z,11.87
2022-12-26T12:09:05.516Z,11.81
2022-12-26T12:12:01.850Z,11.80
2022-12-26T12:14:43.033Z,11.74
2022-12-26T12:17:18.618Z,11.67
2022-12-26T12:20:00.725Z,11.59
2022-12-26T12:22:56.793Z,11.37
2022-12-26T12:25:23.394Z,11.22
2022-12-26T12:28:08.118Z,10.86
2022-12-26T12:30:45.449Z,10.35
2022-12-26T12:33:26.449Z,10.26
2022-12-26T12:36:17.769Z,9.97
2022-12-26T12:39:11.146Z,9.81
2022-12-26T12:41:56.504Z,9.84
2022-12-26T12:44:44.653Z,9.87
2022-12-26T12:47:24.150Z,9.78
2022-12-26T12:50:00.425Z,9.74
2022-12-26T12:52:46.206Z,9.72
2022-12-26T12:55:34.885Z,9.75
2022-12-26T12:58:07.388Z,9.73
2022-12-26T13:01:05.151Z,9.78
2022-12-26T13:03:34.758Z,9.80
2022-12-26T13:06:08.695Z,9.80
2022-12-26T13:08:44.811Z,9.85
2022-12-26T13:11:33.154Z,9.73
2022-12-26T13:14:10.053Z,9.77
2022-12-26T13:16:45.010Z,9.80
2022-12-26T13:19:40.509Z,9.75
2022-12-26T13:22:15.367Z,9.81
2022-12-26T13:24:45.997Z,9.75
2022-12-26T13:27:18.402Z,9.52
2022-12-26T13:29:47.516Z,9.42
2022-12-26T13:32:26.221Z,9.44
2022-12-26T13:34:56.986Z,9.05
2022-12-26T13:37:39.010Z,9.16
2022-12-26T13:40:18.042Z,9.15
2022-12-26T13:43:25.588Z,9.33
2022-12-26T13:45:55.217Z,9.16
2022-12-26T13:48:21.775Z,9.04
2022-12-26T13:50:55.339Z,8.95
2022-12-26T13:53:25.936Z,9.07
2022-12-26T13:55:59.379Z,8.85
2022-12-26T13:58:31.962Z,8.56
2022-12-26T14:01:19.687Z,8.64
2022-12-26T14:03:51.399Z,8.66
2022-12-26T14:06:36.660Z,8.74
2022-12-26T14:09:21.435Z,8.69
2022-12-26T14:12:06.865Z,8.58
2022-12-26T14:15:01.767Z,8.53
2022-12-26T14:17:41.224Z,8.51
2022-12-26T14:20:23.183Z,8.50
2022-12-26T14:23:05.287Z,8.56
2022-12-26T14:26:05.508Z,8.55
2022-12-26T14:28:56.046Z,8.90
2022-12-26T14:31:47.656Z,8.87
2022-12-26T14:34:34.248Z,8.84
2022-12-26T14:37:10.031Z,8.73
2022-12-26T14:40:14.447Z,8.58
2022-12-26T14:43:12.492Z,8.63
2022-12-26T14:45:42.629Z,8.64
2022-12-26T14:48:15.358Z,8.57
2022-12-26T14:50:42.202Z,8.56
2022-12-26T14:53:30.187Z,8.48
2022-12-26T14:56:13.874Z,8.43
2022-12-26T14:58:42.092Z,8.32
2022-12-26T15:01:12.754Z,8.41
2022-12-26T15:03:44.505Z,8.39
2022-12-26T15:06:20.244Z,8.46
2022-12-26T15:09:20.459Z,8.40
2022-12-26T15:11:59.133Z,8.27
2022-12-26T15:14:44.123Z,8.19
2022-12-26T15:17:20.840Z,8.31
2022-12-26T15:20:12.532Z,8.18
2022-12-26T15:23:23.776Z,8.08
2022-12-26T15:26:15.181Z,8.20
2022-12-26T15:29:14.473Z,8.15
2022-12-26T15:31:40.964Z,8.25
2022-12-26T15:34:22.397Z,8.26
2022-12-26T15:37:00.359Z,8.22
2022-12-26T15:39:43.334Z,8.26
2022-12-26T15:42:24.082Z,8.23
2022-12-26T15:45:05.579Z,8.18
2022-12-26T15:47:44.642Z,8.32
2022-12-26T15:50:51.015Z,8.06
2022-12-26T15:53:53.292Z,7.98
2022-12-26T15:56:49.809Z,7.84
2022-12-26T16:00:13.618Z,7.79
2022-12-26T16:03:28.192Z,7.81
2022-12-26T16:06:05.645Z,7.73
2022-12-26T16:08:58.148Z,7.77
2022-12-26T16:11:47.795Z,7.67
2022-12-26T16:14:34.742Z,7.67
2022-12-26T16:17:18.761Z,7.67
2022-12-26T16:19:49.797Z,7.83
2022-12-26T16:22:43.588Z,7.96
2022-12-26T16:25:13.851Z,7.85
2022-12-26T16:27:41.546Z,7.80
2022-12-26T16:30:16.092Z,7.71
2022-12-26T16:32:44.359Z,7.64
2022-12-26T16:35:22.315Z,7.62
2022-12-26T16:37:52.694Z,7.52
2022-12-26T16:40:44.878Z,7.68
2022-12-26T16:43:17.554Z,7.53
2022-12-26T16:45:47.585Z,7.56
2022-12-26T16:48:16.973Z,7.70
2022-12-26T16:50:50.049Z,7.66
2022-12-26T16:53:22.572Z,7.68
2022-12-26T16:56:15.627Z,7.61
2022-12-26T16:58:42.343Z,7.54
2022-12-26T17:01:11.886Z,7.22
2022-12-26T17:03:55.464Z,7.26
2022-12-26T17:06:26.446Z,7.28
2022-12-26T17:08:55.727Z,7.21
2022-12-26T17:11:31.588Z,7.28
2022-12-26T17:14:00.090Z,7.24
2022-12-26T17:16:29.704Z,7.25
2022-12-26T17:19:09.471Z,7.45
2022-12-26T17:21:36.303Z,7.28
2022-12-26T17:24:19.504Z,7.10
2022-12-26T17:27:07.467Z,7.17
2022-12-26T17:29:47.784Z,7.24
2022-12-26T17:32:20.677Z,7.21
2022-12-26T17:34:47.458Z,7.32
2022-12-26T17:37:21.966Z,7.45
2022-12-26T17:40:05.153Z,7.42
2022-12-26T17:42:42.848Z,7.28
2022-12-26T17:45:15.722Z,7.15
2022-12-26T17:47:42.397Z,7.06
2022-12-26T17:50:09.096Z,6.87
2022-12-26T17:52:37.082Z,6.87
2022-12-26T17:55:11.952Z,6.88
2022-12-26T17:57:38.691Z,6.90
2022-12-26T18:00:23.540Z,6.98
2022-12-26T18:02:51.028Z,6.88
2022-12-26T18:05:19.330Z,6.94
2022-12-26T18:07:47.300Z,6.88
2022-12-26T18:10:20.199Z,6.66
2022-12-26T18:12:47.029Z,6.68
2022-12-26T18:15:14.241Z,6.80
2022-12-26T18:17:41.059Z,6.89
2022-12-26T18:20:08.407Z,6.89
2022-12-26T18:22:34.979Z,6.85
2022-12-26T18:25:01.531Z,6.85
2022-12-26T18:27:33.631Z,6.90
2022-12-26T18:30:00.965Z,6.77
2022-12-26T18:32:33.102Z,6.60
2022-12-26T18:35:00.350Z,6.53
2022-12-26T18:37:29.057Z,6.58
2022-12-26T18:39:55.739Z,6.66
2022-12-26T18:42:23.832Z,6.51
2022-12-26T18:44:50.529Z,6.41
2022-12-26T18:47:19.801Z,6.43
2022-12-26T18:49:47.301Z,6.48
2022-12-26T18:52:17.673Z,6.46
2022-12-26T18:54:45.100Z,6.38
2022-12-26T18:57:17.633Z,6.43
2022-12-26T18:59:44.404Z,6.58
2022-12-26T19:02:17.271Z,6.57
2022-12-26T19:04:44.339Z,6.55
2022-12-26T19:07:11.445Z,6.50
2022-12-26T19:09:38.076Z,6.40
2022-12-26T19:12:04.847Z,6.26
2022-12-26T19:14:31.420Z,6.34
2022-12-26T19:16:58.000Z,6.66
2022-12-26T19:19:26.565Z,6.59
2022-12-26T19:21:53.100Z,6.39
2022-12-26T19:24:19.683Z,6.42
2022-12-26T19:26:46.277Z,6.59
2022-12-26T19:29:13.164Z,6.57
2022-12-26T19:31:39.887Z,6.48
2022-12-26T19:34:06.586Z,6.40
2022-12-26T19:36:33.407Z,6.53
2022-12-26T19:39:00.102Z,6.18
2022-12-26T19:41:26.805Z,6.12
2022-12-26T19:43:58.432Z,6.11
2022-12-26T19:46:25.931Z,6.05
2022-12-26T19:48:53.112Z,5.95
2022-12-26T19:51:20.881Z,5.92
2022-12-26T19:53:48.472Z,6.04
2022-12-26T19:56:18.123Z,6.12
2022-12-26T19:58:45.034Z,6.08
2022-12-26T20:01:15.340Z,6.09
2022-12-26T20:03:42.703Z,6.15
2022-12-26T20:06:15.100Z,6.10
2022-12-26T20:08:42.811Z,6.02
2022-12-26T20:11:12.888Z,6.01
2022-12-26T20:13:40.993Z,5.90
2022-12-26T20:16:29.879Z,6.05
2022-12-26T20:18:56.367Z,5.76
2022-12-26T20:21:23.817Z,5.57
2022-12-26T20:23:50.619Z,5.70
2022-12-26T20:26:20.641Z,5.89
2022-12-26T20:28:47.577Z,6.15
2022-12-26T20:31:17.654Z,6.10
2022-12-26T20:33:46.222Z,6.14
2022-12-26T20:36:14.274Z,6.14
2022-12-26T20:38:42.032Z,6.20
2022-12-26T20:41:09.364Z,6.22
2022-12-26T20:43:36.279Z,6.17
2022-12-26T20:46:13.399Z,6.05
2022-12-26T20:48:40.673Z,6.08
2022-12-26T20:51:10.485Z,6.15
2022-12-26T20:53:37.286Z,6.04
2022-12-26T20:56:04.579Z,5.95
2022-12-26T20:58:34.303Z,5.99
2022-12-26T21:01:07.129Z,5.92
2022-12-26T21:03:35.349Z,5.94
2022-12-26T21:06:17.306Z,6.03
2022-12-26T21:08:45.683Z,5.77
2022-12-26T21:11:17.732Z,5.67
2022-12-26T21:13:47.105Z,5.80
2022-12-26T21:16:16.016Z,5.74
2022-12-26T21:18:43.221Z,5.69
2022-12-26T21:21:15.935Z,5.73
2022-12-26T21:23:43.144Z,5.84
2022-12-26T21:26:10.576Z,5.74
2022-12-26T21:28:37.251Z,5.81
2022-12-26T21:31:07.751Z,5.67
2022-12-26T21:33:39.095Z,5.84
2022-12-26T21:36:13.547Z,5.81
2022-12-26T21:38:40.935Z,5.85
2022-12-26T21:41:09.564Z,5.99
2022-12-26T21:43:36.436Z,5.88
2022-12-26T21:46:09.168Z,5.91
2022-12-26T21:48:36.383Z,5.84
2022-12-26T21:51:07.441Z,5.79
2022-12-26T21:53:34.903Z,5.67
2022-12-26T21:56:06.544Z,5.77
2022-12-26T21:58:52.833Z,5.83
2022-12-26T22:01:21.715Z,5.76
2022-12-26T22:04:07.397Z,5.51
2022-12-26T22:06:34.310Z,5.56
2022-12-26T22:09:01.633Z,5.47
2022-12-26T22:11:46.919Z,5.36
2022-12-26T22:14:13.773Z,5.44
2022-12-26T22:16:40.364Z,5.73
2022-12-26T22:19:07.646Z,5.61
2022-12-26T22:21:34.483Z,5.72
2022-12-26T22:24:01.359Z,5.71
2022-12-26T22:26:29.210Z,5.71
2022-12-26T22:28:57.383Z,5.75
2022-12-26T22:31:31.419Z,5.72
2022-12-26T22:34:01.094Z,5.77
2022-12-26T22:36:29.112Z,5.72
2022-12-26T22:38:55.959Z,5.77
2022-12-26T22:41:22.509Z,5.82
2022-12-26T22:43:49.072Z,5.83
2022-12-26T22:46:15.634Z,5.70
2022-12-26T22:48:42.272Z,5.75
2022-12-26T22:51:14.892Z,5.86
2022-12-26T22:53:42.238Z,5.79
2022-12-26T22:56:10.016Z,5.72
2022-12-26T22:58:36.575Z,5.77
2022-12-26T23:01:03.435Z,5.74
2022-12-26T23:03:30.065Z,5.75
2022-12-26T23:05:56.934Z,5.82
2022-12-26T23:08:26.437Z,5.80
2022-12-26T23:10:58.220Z,5.79
2022-12-26T23:13:25.445Z,5.64
2022-12-26T23:15:59.270Z,5.65
2022-12-26T23:18:58.843Z,5.70
2022-12-26T23:21:38.595Z,5.87
2022-12-26T23:24:23.233Z,5.93
2022-12-26T23:26:53.614Z,6.03
2022-12-26T23:29:41.498Z,6.12
2022-12-26T23:32:09.706Z,6.08
2022-12-26T23:34:36.707Z,6.08
2022-12-26T23:37:03.789Z,6.04
2022-12-26T23:39:30.361Z,5.96
2022-12-26T23:41:56.932Z,5.91
2022-12-26T23:44:23.432Z,5.94
2022-12-26T23:46:50.271Z,5.96
2022-12-26T23:49:16.933Z,6.04
2022-12-26T23:51:43.640Z,6.01
2022-12-26T23:54:10.663Z,5.90
2022-12-26T23:56:37.340Z,5.99
2022-12-26T23:59:05.174Z,5.80
